createdAt,value
2019-01-26T00:00:49.874Z,4.37
2019-01-26T00:01:49.801Z,4.36
2019-01-26T00:02:50.061Z,4.36
2019-01-26T00:03:49.867Z,4.37
2019-01-26T00:04:49.796Z,4.38
2019-01-26T00:05:49.748Z,4.38
2019-01-26T00:06:49.880Z,4.37
2019-01-26T00:07:49.988Z,4.38
2019-01-26T00:08:49.965Z,4.39
2019-01-26T00:09:49.827Z,4.39
2019-01-26T00:10:49.717Z,4.39
2019-01-26T00:11:49.817Z,4.4
2019-01-26T00:12:49.910Z,4.4
2019-01-26T00:13:50.201Z,4.39
2019-01-26T00:14:49.910Z,4.39
2019-01-26T00:15:49.804Z,4.39
2019-01-26T00:16:50.230Z,4.4
2019-01-26T00:17:49.892Z,4.41
2019-01-26T00:18:49.902Z,4.39
2019-01-26T00:19:49.773Z,4.39
2019-01-26T00:20:49.741Z,4.39
2019-01-26T00:21:49.885Z,4.39
2019-01-26T00:22:49.710Z,4.38
2019-01-26T00:23:49.883Z,4.39
2019-01-26T00:24:49.731Z,4.39
2019-01-26T00:25:49.753Z,4.39
2019-01-26T00:26:49.752Z,4.39
2019-01-26T00:27:49.723Z,4.39
2019-01-26T00:28:50.155Z,4.39
2019-01-26T00:29:50.316Z,4.39
2019-01-26T00:30:49.939Z,4.39
2019-01-26T00:31:49.818Z,4.37
2019-01-26T00:32:49.697Z,4.38
2019-01-26T00:33:49.789Z,4.38
2019-01-26T00:34:49.717Z,4.38
2019-01-26T00:35:49.752Z,4.38
2019-01-26T00:36:49.784Z,4.39
2019-01-26T00:37:49.815Z,4.39
2019-01-26T00:38:50.209Z,4.39
2019-01-26T00:39:49.693Z,4.39
2019-01-26T00:40:49.685Z,4.39
2019-01-26T00:41:49.700Z,4.39
2019-01-26T00:42:49.714Z,4.39
2019-01-26T00:43:49.758Z,4.39
2019-01-26T00:44:49.995Z,4.39
2019-01-26T00:45:49.734Z,4.39
2019-01-26T00:46:49.677Z,4.4
2019-01-26T00:47:49.938Z,4.39
2019-01-26T00:48:49.683Z,4.4
2019-01-26T00:49:49.714Z,4.39
2019-01-26T00:50:49.661Z,4.4
2019-01-26T00:51:49.804Z,4.4
2019-01-26T00:52:50.053Z,4.42
2019-01-26T00:53:49.956Z,4.4
2019-01-26T00:54:49.728Z,4.41
2019-01-26T00:55:49.706Z,4.42
2019-01-26T00:56:49.859Z,4.42
2019-01-26T00:57:50.005Z,4.41
2019-01-26T00:58:49.636Z,4.4
2019-01-26T00:59:49.717Z,4.39
2019-01-26T01:00:49.652Z,4.4
2019-01-26T01:01:49.731Z,4.41
2019-01-26T01:02:49.744Z,4.41
2019-01-26T01:03:50.423Z,4.43
2019-01-26T01:04:49.675Z,4.44
2019-01-26T01:05:49.755Z,4.42
2019-01-26T01:06:49.946Z,4.43
2019-01-26T01:07:50.009Z,4.43
2019-01-26T01:08:49.675Z,4.43
2019-01-26T01:09:49.996Z,4.44
2019-01-26T01:10:49.801Z,4.44
2019-01-26T01:11:49.697Z,4.43
2019-01-26T01:12:49.753Z,4.43
2019-01-26T01:13:49.738Z,4.44
2019-01-26T01:14:50.022Z,4.44
2019-01-26T01:15:49.672Z,4.45
2019-01-26T01:16:49.747Z,4.45
2019-01-26T01:17:49.957Z,4.44
2019-01-26T01:18:49.831Z,4.45
2019-01-26T01:19:49.777Z,4.45
2019-01-26T01:20:49.947Z,4.46
2019-01-26T01:21:50.122Z,4.46
2019-01-26T01:22:49.749Z,4.46
2019-01-26T01:23:49.705Z,4.45
2019-01-26T01:24:49.663Z,4.45
2019-01-26T01:25:51.496Z,4.45
2019-01-26T01:26:49.776Z,4.44
2019-01-26T01:27:49.653Z,4.43
2019-01-26T01:28:50.225Z,4.42
2019-01-26T01:29:50.102Z,4.42
2019-01-26T01:30:49.627Z,4.43
2019-01-26T01:31:49.910Z,4.43
2019-01-26T01:32:49.792Z,4.45
2019-01-26T01:33:51.410Z,4.44
2019-01-26T01:34:50.214Z,4.45
2019-01-26T01:35:49.865Z,4.45
2019-01-26T01:36:49.619Z,4.45
2019-01-26T01:37:50.232Z,4.46
2019-01-26T01:38:49.855Z,4.45
2019-01-26T01:39:49.728Z,4.46
2019-01-26T01:40:49.748Z,4.46
2019-01-26T01:41:50.026Z,4.45
2019-01-26T01:42:49.594Z,4.45
2019-01-26T01:43:49.718Z,4.44
2019-01-26T01:44:49.714Z,4.4
2019-01-26T01:45:49.635Z,4.39
2019-01-26T01:46:49.659Z,4.4
2019-01-26T01:47:50.358Z,4.4
2019-01-26T01:48:49.623Z,4.39
2019-01-26T01:49:49.659Z,4.38
2019-01-26T01:50:49.784Z,4.39
2019-01-26T01:51:49.758Z,4.41
2019-01-26T01:52:49.853Z,4.37
2019-01-26T01:53:51.419Z,4.35
2019-01-26T01:54:49.912Z,4.36
2019-01-26T01:55:49.708Z,4.35
2019-01-26T01:56:49.676Z,4.34
2019-01-26T01:57:49.816Z,4.38
2019-01-26T01:58:49.544Z,4.36
2019-01-26T01:59:49.713Z,4.36
2019-01-26T02:00:49.592Z,4.36
2019-01-26T02:01:49.544Z,4.36
2019-01-26T02:02:49.635Z,4.37
2019-01-26T02:03:49.576Z,4.36
2019-01-26T02:04:49.529Z,4.35
2019-01-26T02:05:49.682Z,4.37
2019-01-26T02:06:49.567Z,4.36
2019-01-26T02:07:49.722Z,4.37
2019-01-26T02:08:49.609Z,4.36
2019-01-26T02:09:49.557Z,4.35
2019-01-26T02:10:49.564Z,4.35
2019-01-26T02:11:49.548Z,4.37
2019-01-26T02:12:49.527Z,4.37
2019-01-26T02:13:49.662Z,4.35
2019-01-26T02:14:49.927Z,4.35
2019-01-26T02:15:49.525Z,4.35
2019-01-26T02:16:50.528Z,4.36
2019-01-26T02:17:49.770Z,4.38
2019-01-26T02:18:49.518Z,4.39
2019-01-26T02:19:49.966Z,4.39
2019-01-26T02:20:49.703Z,4.38
2019-01-26T02:21:49.556Z,4.37
2019-01-26T02:22:49.681Z,4.38
2019-01-26T02:23:50.088Z,4.41
2019-01-26T02:24:49.588Z,4.4
2019-01-26T02:25:49.680Z,4.41
2019-01-26T02:26:49.577Z,4.41
2019-01-26T02:27:49.510Z,4.41
2019-01-26T02:28:49.737Z,4.39
2019-01-26T02:29:49.701Z,4.42
2019-01-26T02:30:49.579Z,4.42
2019-01-26T02:31:49.859Z,4.43
2019-01-26T02:32:49.722Z,4.42
2019-01-26T02:33:49.553Z,4.42
2019-01-26T02:34:49.604Z,4.43
2019-01-26T02:35:50.150Z,4.43
2019-01-26T02:36:49.574Z,4.44
2019-01-26T02:37:49.937Z,4.44
2019-01-26T02:38:49.564Z,4.44
2019-01-26T02:39:49.768Z,4.44
2019-01-26T02:40:49.896Z,4.43
2019-01-26T02:41:49.812Z,4.43
2019-01-26T02:42:49.591Z,4.45
2019-01-26T02:43:49.652Z,4.44
2019-01-26T02:44:49.944Z,4.44
2019-01-26T02:45:50.747Z,4.45
2019-01-26T02:46:49.814Z,4.45
2019-01-26T02:47:49.668Z,4.45
2019-01-26T02:48:50.147Z,4.45
2019-01-26T02:49:49.459Z,4.45
2019-01-26T02:50:49.581Z,4.45
2019-01-26T02:51:49.521Z,4.45
2019-01-26T02:52:49.507Z,4.45
2019-01-26T02:53:49.556Z,4.45
2019-01-26T02:54:49.646Z,4.44
2019-01-26T02:55:49.585Z,4.45
2019-01-26T02:56:49.626Z,4.44
2019-01-26T02:57:49.648Z,4.44
2019-01-26T02:58:49.754Z,4.43
2019-01-26T02:59:49.540Z,4.44
2019-01-26T03:00:49.584Z,4.45
2019-01-26T03:01:49.466Z,4.45
2019-01-26T03:02:49.739Z,4.44
2019-01-26T03:03:49.976Z,4.45
2019-01-26T03:04:49.524Z,4.43
2019-01-26T03:05:49.620Z,4.43
2019-01-26T03:06:49.616Z,4.42
2019-01-26T03:07:49.866Z,4.42
2019-01-26T03:08:49.592Z,4.43
2019-01-26T03:09:49.523Z,4.43
2019-01-26T03:10:50.611Z,4.43
2019-01-26T03:11:49.466Z,4.41
2019-01-26T03:12:49.543Z,4.4
2019-01-26T03:13:49.450Z,4.4
2019-01-26T03:14:51.264Z,4.42
2019-01-26T03:15:49.626Z,4.4
2019-01-26T03:16:49.721Z,4.39
2019-01-26T03:17:49.906Z,4.39
2019-01-26T03:18:49.504Z,4.4
2019-01-26T03:19:49.441Z,4.4
2019-01-26T03:20:49.489Z,4.41
2019-01-26T03:21:49.483Z,4.4
2019-01-26T03:22:49.623Z,4.39
2019-01-26T03:23:49.493Z,4.39
2019-01-26T03:24:49.560Z,4.4
2019-01-26T03:25:49.873Z,4.39
2019-01-26T03:26:49.554Z,4.39
2019-01-26T03:27:49.607Z,4.4
2019-01-26T03:28:49.716Z,4.39
2019-01-26T03:29:49.422Z,4.38
2019-01-26T03:30:49.667Z,4.4
2019-01-26T03:31:49.884Z,4.4
2019-01-26T03:32:49.980Z,4.4
2019-01-26T03:33:49.627Z,4.4
2019-01-26T03:34:49.489Z,4.4
2019-01-26T03:35:49.456Z,4.39
2019-01-26T03:36:49.518Z,4.4
2019-01-26T03:37:49.656Z,4.41
2019-01-26T03:38:49.478Z,4.41
2019-01-26T03:39:49.560Z,4.43
2019-01-26T03:40:49.413Z,4.42
2019-01-26T03:41:49.402Z,4.42
2019-01-26T03:42:49.396Z,4.4
2019-01-26T03:43:49.568Z,4.4
2019-01-26T03:44:49.551Z,4.41
2019-01-26T03:45:49.672Z,4.41
2019-01-26T03:46:49.441Z,4.41
2019-01-26T03:47:49.522Z,4.42
2019-01-26T03:48:49.487Z,4.41
2019-01-26T03:49:49.512Z,4.4
2019-01-26T03:50:49.462Z,4.4
2019-01-26T03:51:49.445Z,4.4
2019-01-26T03:52:49.473Z,4.4
2019-01-26T03:53:49.816Z,4.41
2019-01-26T03:54:49.458Z,4.4
2019-01-26T03:55:49.399Z,4.4
2019-01-26T03:56:49.451Z,4.38
2019-01-26T03:57:49.384Z,4.38
2019-01-26T03:58:49.450Z,4.38
2019-01-26T03:59:49.888Z,4.39
2019-01-26T04:00:49.460Z,4.39
2019-01-26T04:01:49.412Z,4.4
2019-01-26T04:02:51.196Z,4.38
2019-01-26T04:03:49.527Z,4.39
2019-01-26T04:04:49.566Z,4.38
2019-01-26T04:05:51.200Z,4.39
2019-01-26T04:06:49.642Z,4.4
2019-01-26T04:07:49.440Z,4.39
2019-01-26T04:08:49.358Z,4.4
2019-01-26T04:09:50.679Z,4.39
2019-01-26T04:10:50.106Z,4.39
2019-01-26T04:11:49.395Z,4.41
2019-01-26T04:12:49.466Z,4.41
2019-01-26T04:13:49.605Z,4.41
2019-01-26T04:14:58.599Z,4.41
2019-01-26T04:15:50.219Z,4.42
2019-01-26T04:16:49.564Z,4.42
2019-01-26T04:17:49.451Z,4.42
2019-01-26T04:18:49.455Z,4.43
2019-01-26T04:19:49.873Z,4.44
2019-01-26T04:20:49.412Z,4.45
2019-01-26T04:21:49.452Z,4.44
2019-01-26T04:22:49.512Z,4.45
2019-01-26T04:23:49.588Z,4.45
2019-01-26T04:24:49.606Z,4.44
2019-01-26T04:25:49.440Z,4.45
2019-01-26T04:26:49.352Z,4.45
2019-01-26T04:27:49.577Z,4.46
2019-01-26T04:28:49.764Z,4.47
2019-01-26T04:29:49.721Z,4.47
2019-01-26T04:30:50.141Z,4.48
2019-01-26T04:31:49.416Z,4.47
2019-01-26T04:32:49.424Z,4.48
2019-01-26T04:33:49.605Z,4.48
2019-01-26T04:34:49.786Z,4.49
2019-01-26T04:35:49.434Z,4.48
2019-01-26T04:36:49.331Z,4.49
2019-01-26T04:37:49.469Z,4.5
2019-01-26T04:38:49.744Z,4.49
2019-01-26T04:39:49.363Z,4.5
2019-01-26T04:40:51.161Z,4.49
2019-01-26T04:41:49.376Z,4.5
2019-01-26T04:42:49.312Z,4.5
2019-01-26T04:43:49.670Z,4.5
2019-01-26T04:44:49.397Z,4.49
2019-01-26T04:45:49.622Z,4.5
2019-01-26T04:46:50.111Z,4.51
2019-01-26T04:47:49.927Z,4.51
2019-01-26T04:48:51.183Z,4.5
2019-01-26T04:49:49.349Z,4.5
2019-01-26T04:50:49.778Z,4.52
2019-01-26T04:51:49.465Z,4.52
2019-01-26T04:52:49.728Z,4.51
2019-01-26T04:53:49.402Z,4.52
2019-01-26T04:54:50.527Z,4.52
2019-01-26T04:55:49.536Z,4.53
2019-01-26T04:56:49.436Z,4.53
2019-01-26T04:57:49.521Z,4.54
2019-01-26T04:58:49.321Z,4.54
2019-01-26T04:59:49.468Z,4.54
2019-01-26T05:00:49.556Z,4.55
2019-01-26T05:01:49.326Z,4.54
2019-01-26T05:02:49.615Z,4.55
2019-01-26T05:03:49.424Z,4.55
2019-01-26T05:04:50.199Z,4.55
2019-01-26T05:05:49.615Z,4.56
2019-01-26T05:06:49.382Z,4.55
2019-01-26T05:07:49.307Z,4.57
2019-01-26T05:08:49.384Z,4.56
2019-01-26T05:09:49.404Z,4.56
2019-01-26T05:10:49.321Z,4.56
2019-01-26T05:11:51.116Z,4.57
2019-01-26T05:12:49.463Z,4.57
2019-01-26T05:13:49.357Z,4.56
2019-01-26T05:14:49.514Z,4.57
2019-01-26T05:15:51.098Z,4.58
2019-01-26T05:16:49.318Z,4.56
2019-01-26T05:17:49.268Z,4.56
2019-01-26T05:18:49.385Z,4.57
2019-01-26T05:19:49.561Z,4.56
2019-01-26T05:20:49.416Z,4.57
2019-01-26T05:21:49.590Z,4.57
2019-01-26T05:22:49.380Z,4.57
2019-01-26T05:23:49.274Z,4.58
2019-01-26T05:24:49.293Z,4.59
2019-01-26T05:25:49.312Z,4.58
2019-01-26T05:26:49.295Z,4.58
2019-01-26T05:27:49.326Z,4.6
2019-01-26T05:28:49.343Z,4.58
2019-01-26T05:29:49.314Z,4.59
2019-01-26T05:30:49.301Z,4.59
2019-01-26T05:31:49.280Z,4.59
2019-01-26T05:32:49.260Z,4.6
2019-01-26T05:33:49.277Z,4.59
2019-01-26T05:34:49.272Z,4.59
2019-01-26T05:35:49.346Z,4.59
2019-01-26T05:36:49.360Z,4.59
2019-01-26T05:37:49.274Z,4.6
2019-01-26T05:38:49.265Z,4.6
2019-01-26T05:39:49.218Z,4.59
2019-01-26T05:40:49.244Z,4.59
2019-01-26T05:41:49.282Z,4.6
2019-01-26T05:42:49.323Z,4.62
2019-01-26T05:43:49.392Z,4.62
2019-01-26T05:44:50.115Z,4.6
2019-01-26T05:45:49.312Z,4.6
2019-01-26T05:46:49.221Z,4.6
2019-01-26T05:47:50.010Z,4.61
2019-01-26T05:48:49.726Z,4.6
2019-01-26T05:49:49.444Z,4.6
2019-01-26T05:50:49.358Z,4.59
2019-01-26T05:51:49.284Z,4.59
2019-01-26T05:52:49.595Z,4.59
2019-01-26T05:53:49.248Z,4.61
2019-01-26T05:54:50.433Z,4.61
2019-01-26T05:55:49.338Z,4.6
2019-01-26T05:56:49.290Z,4.6
2019-01-26T05:57:49.551Z,4.61
2019-01-26T05:58:49.542Z,4.6
2019-01-26T05:59:49.435Z,4.59
2019-01-26T06:00:49.214Z,4.6
2019-01-26T06:01:49.418Z,4.6
2019-01-26T06:02:49.655Z,4.6
2019-01-26T06:03:49.563Z,4.61
2019-01-26T06:04:49.575Z,4.6
2019-01-26T06:05:49.600Z,4.6
2019-01-26T06:06:49.273Z,4.6
2019-01-26T06:07:50.414Z,4.58
2019-01-26T06:08:49.411Z,4.6
2019-01-26T06:09:49.156Z,4.6
2019-01-26T06:10:49.390Z,4.59
2019-01-26T06:11:49.625Z,4.61
2019-01-26T06:12:49.270Z,4.61
2019-01-26T06:13:49.578Z,4.6
2019-01-26T06:14:49.294Z,4.6
2019-01-26T06:15:49.370Z,4.6
2019-01-26T06:16:49.527Z,4.61
2019-01-26T06:17:55.622Z,4.61
2019-01-26T06:18:49.174Z,4.61
2019-01-26T06:19:51.002Z,4.62
2019-01-26T06:20:49.769Z,4.63
2019-01-26T06:21:49.473Z,4.62
2019-01-26T06:22:49.181Z,4.62
2019-01-26T06:23:51.002Z,4.62
2019-01-26T06:24:49.361Z,4.61
2019-01-26T06:25:49.239Z,4.6
2019-01-26T06:26:49.333Z,4.61
2019-01-26T06:27:49.521Z,4.61
2019-01-26T06:28:49.241Z,4.59
2019-01-26T06:29:49.146Z,4.59
2019-01-26T06:30:49.203Z,4.58
2019-01-26T06:31:48.982Z,4.59
2019-01-26T06:32:49.376Z,4.61
2019-01-26T06:33:49.219Z,4.63
2019-01-26T06:34:49.228Z,4.61
2019-01-26T06:35:49.340Z,4.61
2019-01-26T06:36:49.214Z,4.62
2019-01-26T06:37:49.219Z,4.63
2019-01-26T06:38:49.296Z,4.62
2019-01-26T06:39:49.601Z,4.63
2019-01-26T06:40:49.239Z,4.62
2019-01-26T06:41:49.153Z,4.63
2019-01-26T06:42:49.264Z,4.63
2019-01-26T06:43:49.200Z,4.64
2019-01-26T06:44:49.533Z,4.65
2019-01-26T06:45:49.640Z,4.65
2019-01-26T06:46:49.235Z,4.66
2019-01-26T06:47:49.223Z,4.66
2019-01-26T06:48:49.440Z,4.66
2019-01-26T06:49:49.235Z,4.66
2019-01-26T06:50:49.268Z,4.66
2019-01-26T06:51:49.736Z,4.65
2019-01-26T06:52:49.297Z,4.66
2019-01-26T06:53:49.117Z,4.66
2019-01-26T06:54:49.147Z,4.68
2019-01-26T06:55:49.712Z,4.68
2019-01-26T06:56:49.361Z,4.66
2019-01-26T06:57:50.727Z,4.68
2019-01-26T06:58:49.423Z,4.67
2019-01-26T06:59:50.981Z,4.67
2019-01-26T07:00:49.528Z,4.68
2019-01-26T07:01:49.141Z,4.68
2019-01-26T07:02:49.360Z,4.68
2019-01-26T07:03:49.240Z,4.69
2019-01-26T07:04:49.609Z,4.67
2019-01-26T07:05:49.213Z,4.68
2019-01-26T07:06:49.110Z,4.68
2019-01-26T07:07:49.213Z,4.68
2019-01-26T07:08:49.263Z,4.69
2019-01-26T07:09:49.371Z,4.69
2019-01-26T07:10:49.238Z,4.68
2019-01-26T07:11:49.137Z,4.69
2019-01-26T07:12:49.202Z,4.71
2019-01-26T07:13:49.319Z,4.69
2019-01-26T07:14:49.312Z,4.7
2019-01-26T07:15:49.488Z,4.7
2019-01-26T07:16:49.395Z,4.7
2019-01-26T07:17:49.146Z,4.71
2019-01-26T07:18:49.109Z,4.72
2019-01-26T07:19:49.275Z,4.71
2019-01-26T07:20:49.179Z,4.71
2019-01-26T07:21:49.133Z,4.71
2019-01-26T07:22:49.651Z,4.73
2019-01-26T07:23:49.785Z,4.72
2019-01-26T07:24:49.123Z,4.71
2019-01-26T07:25:49.105Z,4.72
2019-01-26T07:26:49.212Z,4.72
2019-01-26T07:27:49.231Z,4.73
2019-01-26T07:28:49.258Z,4.73
2019-01-26T07:29:49.179Z,4.74
2019-01-26T07:30:49.146Z,4.74
2019-01-26T07:31:49.451Z,4.74
2019-01-26T07:32:49.192Z,4.74
2019-01-26T07:33:50.234Z,4.75
2019-01-26T07:34:49.075Z,4.75
2019-01-26T07:35:49.141Z,4.75
2019-01-26T07:36:49.061Z,4.73
2019-01-26T07:37:49.160Z,4.74
2019-01-26T07:38:49.116Z,4.75
2019-01-26T07:39:49.102Z,4.73
2019-01-26T07:40:49.254Z,4.75
2019-01-26T07:41:49.319Z,4.77
2019-01-26T07:42:49.622Z,4.75
2019-01-26T07:43:49.289Z,4.76
2019-01-26T07:44:49.524Z,4.74
2019-01-26T07:45:49.382Z,4.75
2019-01-26T07:46:49.135Z,4.75
2019-01-26T07:47:49.546Z,4.77
2019-01-26T07:48:49.574Z,4.78
2019-01-26T07:49:49.199Z,4.76
2019-01-26T07:50:49.228Z,4.76
2019-01-26T07:51:49.091Z,4.77
2019-01-26T07:52:49.287Z,4.77
2019-01-26T07:53:49.135Z,4.77
2019-01-26T07:54:49.313Z,4.78
2019-01-26T07:55:49.146Z,4.8
2019-01-26T07:56:49.317Z,4.81
2019-01-26T07:57:49.037Z,4.81
2019-01-26T07:58:50.847Z,4.81
2019-01-26T07:59:49.500Z,4.8
2019-01-26T08:00:49.083Z,4.8
2019-01-26T08:01:49.167Z,4.81
2019-01-26T08:02:49.039Z,4.79
2019-01-26T08:03:49.117Z,4.79
2019-01-26T08:04:49.127Z,4.79
2019-01-26T08:05:49.186Z,4.79
2019-01-26T08:06:50.312Z,4.8
2019-01-26T08:07:50.121Z,4.8
2019-01-26T08:08:49.216Z,4.8
2019-01-26T08:09:49.291Z,4.8
2019-01-26T08:10:49.684Z,4.8
2019-01-26T08:11:50.856Z,4.8
2019-01-26T08:12:49.229Z,4.81
2019-01-26T08:13:49.347Z,4.8
2019-01-26T08:14:49.219Z,4.84
2019-01-26T08:15:49.156Z,4.83
2019-01-26T08:16:49.475Z,4.81
2019-01-26T08:17:50.069Z,4.82
2019-01-26T08:18:49.138Z,4.82
2019-01-26T08:19:49.287Z,4.82
2019-01-26T08:20:49.895Z,4.83
2019-01-26T08:21:49.390Z,4.83
2019-01-26T08:22:49.172Z,4.84
2019-01-26T08:23:49.196Z,4.83
2019-01-26T08:24:49.004Z,4.83
2019-01-26T08:25:49.028Z,4.84
2019-01-26T08:26:49.133Z,4.84
2019-01-26T08:27:49.152Z,4.85
2019-01-26T08:28:51.034Z,4.84
2019-01-26T08:29:49.364Z,4.85
2019-01-26T08:30:49.132Z,4.85
2019-01-26T08:31:49.256Z,4.85
2019-01-26T08:32:49.151Z,4.85
2019-01-26T08:33:49.424Z,4.84
2019-01-26T08:34:49.383Z,4.83
2019-01-26T08:35:49.056Z,4.84
2019-01-26T08:36:49.392Z,4.84
2019-01-26T08:37:49.400Z,4.83
2019-01-26T08:38:49.947Z,4.83
2019-01-26T08:39:49.152Z,4.83
2019-01-26T08:40:49.345Z,4.82
2019-01-26T08:41:49.626Z,4.82
2019-01-26T08:42:49.442Z,4.83
2019-01-26T08:43:49.078Z,4.84
2019-01-26T08:44:49.431Z,4.82
2019-01-26T08:45:49.489Z,4.83
2019-01-26T08:46:49.264Z,4.83
2019-01-26T08:47:49.093Z,4.82
2019-01-26T08:48:50.764Z,4.83
2019-01-26T08:49:49.246Z,4.82
2019-01-26T08:50:48.926Z,4.84
2019-01-26T08:51:49.244Z,4.83
2019-01-26T08:52:50.816Z,4.83
2019-01-26T08:53:48.981Z,4.84
2019-01-26T08:54:48.516Z,4.85
2019-01-26T08:56:49.085Z,4.84
2019-01-26T08:57:49.294Z,4.85
2019-01-26T08:58:49.328Z,4.84
2019-01-26T08:59:49.088Z,4.85
2019-01-26T09:00:49.210Z,4.85
2019-01-26T09:01:51.097Z,4.86
2019-01-26T09:02:49.042Z,4.86
2019-01-26T09:03:49.424Z,4.85
2019-01-26T09:04:54.462Z,4.87
2019-01-26T09:05:49.949Z,4.89
2019-01-26T09:06:49.359Z,4.89
2019-01-26T09:07:50.673Z,4.88
2019-01-26T09:08:48.973Z,4.89
2019-01-26T09:09:49.588Z,4.89
2019-01-26T09:10:49.150Z,4.9
2019-01-26T09:11:48.936Z,4.92
2019-01-26T09:12:48.916Z,4.92
2019-01-26T09:13:49.218Z,4.91
2019-01-26T09:14:48.955Z,4.92
2019-01-26T09:15:48.939Z,4.93
2019-01-26T09:16:49.136Z,4.92
2019-01-26T09:17:48.956Z,4.93
2019-01-26T09:18:48.948Z,4.95
2019-01-26T09:19:48.915Z,4.96
2019-01-26T09:20:50.424Z,4.93
2019-01-26T09:21:49.293Z,4.94
2019-01-26T09:22:49.173Z,4.94
2019-01-26T09:23:48.899Z,4.94
2019-01-26T09:24:49.184Z,4.95
2019-01-26T09:25:49.506Z,4.96
2019-01-26T09:26:49.239Z,4.95
2019-01-26T09:27:48.897Z,4.96
2019-01-26T09:28:48.934Z,4.96
2019-01-26T09:29:48.917Z,4.95
2019-01-26T09:30:49.130Z,4.96
2019-01-26T09:31:49.158Z,4.96
2019-01-26T09:32:48.906Z,4.96
2019-01-26T09:33:49.027Z,4.96
2019-01-26T09:34:49.039Z,4.97
2019-01-26T09:35:48.960Z,4.97
2019-01-26T09:36:49.474Z,4.96
2019-01-26T09:37:48.921Z,4.97
2019-01-26T09:38:49.486Z,4.98
2019-01-26T09:39:48.920Z,4.97
2019-01-26T09:40:49.414Z,4.98
2019-01-26T09:41:48.902Z,4.97
2019-01-26T09:42:49.228Z,4.98
2019-01-26T09:43:48.954Z,4.99
2019-01-26T09:44:49.357Z,4.98
2019-01-26T09:45:48.945Z,4.97
2019-01-26T09:47:49.303Z,4.99
2019-01-26T09:48:48.840Z,4.98
2019-01-26T09:49:48.933Z,4.98
2019-01-26T09:50:48.835Z,4.97
2019-01-26T09:51:48.915Z,4.97
2019-01-26T09:52:48.889Z,4.98
2019-01-26T09:53:48.812Z,4.98
2019-01-26T09:54:49.731Z,4.97
2019-01-26T09:55:48.845Z,4.98
2019-01-26T09:56:49.224Z,4.98
2019-01-26T09:57:48.948Z,4.99
2019-01-26T09:58:48.941Z,4.98
2019-01-26T09:59:48.938Z,4.99
2019-01-26T10:00:48.902Z,4.98
2019-01-26T10:01:49.055Z,4.99
2019-01-26T10:02:48.919Z,4.98
2019-01-26T10:03:49.756Z,5
2019-01-26T10:04:49.269Z,4.98
2019-01-26T10:05:48.846Z,4.99
2019-01-26T10:06:49.179Z,4.99
2019-01-26T10:07:48.970Z,5
2019-01-26T10:08:49.262Z,5.01
2019-01-26T10:09:48.842Z,4.99
2019-01-26T10:10:48.946Z,5.01
2019-01-26T10:11:48.941Z,5.01
2019-01-26T10:12:49.178Z,5.03
2019-01-26T10:13:51.291Z,5.02
2019-01-26T10:14:50.692Z,5.01
2019-01-26T10:15:49.173Z,5.03
2019-01-26T10:16:50.641Z,5.04
2019-01-26T10:17:48.950Z,5.05
2019-01-26T10:18:54.227Z,5.06
2019-01-26T10:19:49.251Z,5.06
2019-01-26T10:20:49.072Z,5.06
2019-01-26T10:21:49.156Z,5.08
2019-01-26T10:22:49.451Z,5.08
2019-01-26T10:23:48.788Z,5.09
2019-01-26T10:24:49.084Z,5.08
2019-01-26T10:25:49.284Z,5.09
2019-01-26T10:26:48.830Z,5.09
2019-01-26T10:27:48.770Z,5.09
2019-01-26T10:28:49.122Z,5.1
2019-01-26T10:29:48.957Z,5.1
2019-01-26T10:30:50.465Z,5.12
2019-01-26T10:31:48.950Z,5.12
2019-01-26T10:32:49.189Z,5.13
2019-01-26T10:33:49.706Z,5.14
2019-01-26T10:34:49.040Z,5.15
2019-01-26T10:35:49.199Z,5.17
2019-01-26T10:36:49.104Z,5.17
2019-01-26T10:37:49.118Z,5.17
2019-01-26T10:38:54.631Z,5.19
2019-01-26T10:40:00.821Z,5.2
2019-01-26T10:41:49.465Z,5.21
2019-01-26T10:42:48.860Z,5.22
2019-01-26T10:43:48.781Z,5.22
2019-01-26T10:44:49.535Z,5.2
2019-01-26T10:45:50.150Z,5.21
2019-01-26T10:46:49.038Z,5.22
2019-01-26T10:47:49.932Z,5.24
2019-01-26T10:48:52.035Z,5.26
2019-01-26T10:49:48.874Z,5.27
2019-01-26T10:50:50.550Z,5.26
2019-01-26T10:51:48.781Z,5.28
2019-01-26T10:52:49.119Z,5.29
2019-01-26T10:53:49.881Z,5.32
2019-01-26T10:54:48.816Z,5.32
2019-01-26T10:55:48.820Z,5.33
2019-01-26T10:56:48.963Z,5.35
2019-01-26T10:57:48.786Z,5.38
2019-01-26T10:58:48.820Z,5.38
2019-01-26T10:59:48.927Z,5.39
2019-01-26T11:00:48.925Z,5.4
2019-01-26T11:01:48.770Z,5.4
2019-01-26T11:02:48.880Z,5.4
2019-01-26T11:03:48.810Z,5.36
2019-01-26T11:04:49.453Z,5.4
2019-01-26T11:05:48.853Z,5.41
2019-01-26T11:06:48.845Z,5.41
2019-01-26T11:07:48.770Z,5.4
2019-01-26T11:08:50.321Z,5.42
2019-01-26T11:09:48.846Z,5.4
2019-01-26T11:10:50.089Z,5.4
2019-01-26T11:11:50.799Z,5.41
2019-01-26T11:12:50.564Z,5.41
2019-01-26T11:14:49.819Z,5.42
2019-01-26T11:15:48.731Z,5.41
2019-01-26T11:16:48.823Z,5.41
2019-01-26T11:17:48.895Z,5.42
2019-01-26T11:18:49.160Z,5.42
2019-01-26T11:19:48.760Z,5.41
2019-01-26T11:20:48.751Z,5.43
2019-01-26T11:21:49.571Z,5.43
2019-01-26T11:23:48.815Z,5.42
2019-01-26T11:24:50.758Z,5.43
2019-01-26T11:26:51.449Z,5.44
2019-01-26T11:27:48.749Z,5.44
2019-01-26T11:28:51.720Z,5.45
2019-01-26T11:29:51.138Z,5.44
2019-01-26T11:30:48.902Z,5.43
2019-01-26T11:31:48.771Z,5.43
2019-01-26T11:33:06.462Z,5.41
2019-01-26T11:33:49.266Z,5.41
2019-01-26T11:34:54.308Z,5.41
2019-01-26T11:35:48.704Z,5.41
2019-01-26T11:36:50.432Z,5.4
2019-01-26T11:37:49.074Z,5.41
2019-01-26T11:39:03.901Z,5.4
2019-01-26T11:39:51.256Z,5.4
2019-01-26T11:40:49.228Z,5.39
2019-01-26T11:41:48.772Z,5.39
2019-01-26T11:42:48.779Z,5.4
2019-01-26T11:43:48.796Z,5.41
2019-01-26T11:44:48.893Z,5.4
2019-01-26T11:45:48.647Z,5.38
2019-01-26T11:47:48.943Z,5.38
2019-01-26T11:48:50.382Z,5.39
2019-01-26T11:49:48.883Z,5.39
2019-01-26T11:50:48.777Z,5.39
2019-01-26T11:51:48.986Z,5.39
2019-01-26T11:52:48.892Z,5.39
2019-01-26T11:53:49.182Z,5.4
2019-01-26T11:54:48.931Z,5.4
2019-01-26T11:55:48.775Z,5.4
2019-01-26T11:56:48.952Z,5.41
2019-01-26T11:57:49.172Z,5.4
2019-01-26T11:58:53.426Z,5.4
2019-01-26T11:59:49.554Z,5.41
2019-01-26T12:00:59.866Z,5.41
2019-01-26T12:01:48.818Z,5.4
2019-01-26T12:02:48.868Z,5.4
2019-01-26T12:03:48.756Z,5.41
2019-01-26T12:04:48.966Z,5.41
2019-01-26T12:05:48.784Z,5.4
2019-01-26T12:06:50.146Z,5.41
2019-01-26T12:07:48.839Z,5.41
2019-01-26T12:08:53.451Z,5.41
2019-01-26T12:09:52.768Z,5.42
2019-01-26T12:10:56.896Z,5.42
2019-01-26T12:11:53.491Z,5.41
2019-01-26T12:12:50.107Z,5.42
2019-01-26T12:13:49.754Z,5.41
2019-01-26T12:14:48.973Z,5.41
2019-01-26T12:15:48.786Z,5.41
2019-01-26T12:16:49.842Z,5.44
2019-01-26T12:17:51.172Z,5.42
2019-01-26T12:18:49.238Z,5.43
2019-01-26T12:19:52.728Z,5.42
2019-01-26T12:20:49.974Z,5.44
2019-01-26T12:21:48.789Z,5.43
2019-01-26T12:22:48.836Z,5.44
2019-01-26T12:23:48.642Z,5.46
2019-01-26T12:24:48.749Z,5.46
2019-01-26T12:25:53.081Z,5.45
2019-01-26T12:26:48.831Z,5.46
2019-01-26T12:27:49.026Z,5.46
2019-01-26T12:28:48.793Z,5.47
2019-01-26T12:29:48.661Z,5.46
2019-01-26T12:30:49.142Z,5.46
2019-01-26T12:31:49.156Z,5.46
2019-01-26T12:32:51.163Z,5.46
2019-01-26T12:33:49.069Z,5.46
2019-01-26T12:34:49.944Z,5.47
2019-01-26T12:35:48.751Z,5.46
2019-01-26T12:36:48.574Z,5.48
2019-01-26T12:37:48.649Z,5.46
2019-01-26T12:38:48.796Z,5.48
2019-01-26T12:39:53.170Z,5.48
2019-01-26T12:40:48.678Z,5.49
2019-01-26T12:41:49.049Z,5.49
2019-01-26T12:42:48.394Z,5.5
2019-01-26T12:43:48.645Z,5.49
2019-01-26T12:44:49.818Z,5.49
2019-01-26T12:45:49.438Z,5.49
2019-01-26T12:46:48.336Z,5.48
2019-01-26T12:47:48.584Z,5.49
2019-01-26T12:48:48.737Z,5.49
2019-01-26T12:49:48.698Z,5.48
2019-01-26T12:50:49.047Z,5.5
2019-01-26T12:51:48.608Z,5.51
2019-01-26T12:52:48.684Z,5.51
2019-01-26T12:53:49.096Z,5.52
2019-01-26T12:54:49.481Z,5.5
2019-01-26T12:55:48.678Z,5.51
2019-01-26T12:56:49.346Z,5.49
2019-01-26T12:57:48.602Z,5.51
2019-01-26T12:58:48.725Z,5.51
2019-01-26T12:59:48.561Z,5.5
2019-01-26T13:00:48.915Z,5.49
2019-01-26T13:01:48.656Z,5.49
2019-01-26T13:02:49.693Z,5.5
2019-01-26T13:03:48.744Z,5.49
2019-01-26T13:04:48.630Z,5.49
2019-01-26T13:05:48.688Z,5.49
2019-01-26T13:06:48.842Z,5.51
2019-01-26T13:07:49.050Z,5.5
2019-01-26T13:08:48.610Z,5.51
2019-01-26T13:09:48.537Z,5.51
2019-01-26T13:10:48.686Z,5.51
2019-01-26T13:11:48.552Z,5.53
2019-01-26T13:12:48.727Z,5.53
2019-01-26T13:13:48.562Z,5.53
2019-01-26T13:14:48.501Z,5.53
2019-01-26T13:15:49.299Z,5.53
2019-01-26T13:16:48.688Z,5.55
2019-01-26T13:17:48.771Z,5.57
2019-01-26T13:18:48.832Z,5.57
2019-01-26T13:19:48.622Z,5.58
2019-01-26T13:20:56.138Z,5.57
2019-01-26T13:21:48.597Z,5.57
2019-01-26T13:22:48.912Z,5.57
2019-01-26T13:23:48.630Z,5.59
2019-01-26T13:24:48.569Z,5.57
2019-01-26T13:25:50.946Z,5.55
2019-01-26T13:26:54.474Z,5.57
2019-01-26T13:27:52.282Z,5.56
2019-01-26T13:28:54.468Z,5.58
2019-01-26T13:29:48.733Z,5.57